createdAt,value
2023-06-28T00:00:29.946Z,2.30
2023-06-28T00:02:58.214Z,2.13
2023-06-28T00:05:26.505Z,2.20
2023-06-28T00:07:55.875Z,2.20
2023-06-28T00:10:23.869Z,1.90
2023-06-28T00:12:51.892Z,2.50
2023-06-28T00:15:19.840Z,2.33
2023-06-28T00:17:47.942Z,2.10
2023-06-28T00:20:16.040Z,2.30
2023-06-28T00:22:43.982Z,2.87
2023-06-28T00:25:13.454Z,1.90
2023-06-28T00:27:41.553Z,1.93
2023-06-28T00:30:10.752Z,2.50
2023-06-28T00:32:38.869Z,2.40
2023-06-28T00:35:07.566Z,2.27
2023-06-28T00:37:35.585Z,2.07
2023-06-28T00:40:04.499Z,2.90
2023-06-28T00:42:33.900Z,1.83
2023-06-28T00:45:01.877Z,2.60
2023-06-28T00:47:30.445Z,2.00
2023-06-28T00:50:01.190Z,2.80
2023-06-28T00:52:29.339Z,2.50
2023-06-28T00:54:57.444Z,2.20
2023-06-28T00:57:25.716Z,2.37
2023-06-28T00:59:57.743Z,2.13
2023-06-28T01:02:25.813Z,2.00
2023-06-28T01:04:58.595Z,2.63
2023-06-28T01:07:28.951Z,2.47
2023-06-28T01:09:58.498Z,2.10
2023-06-28T01:12:27.409Z,2.13
2023-06-28T01:14:56.984Z,4.10
2023-06-28T01:17:25.027Z,2.30
2023-06-28T01:19:55.775Z,2.13
2023-06-28T01:22:26.429Z,2.37
2023-06-28T01:24:57.564Z,2.70
2023-06-28T01:27:26.178Z,2.43
2023-06-28T01:29:57.460Z,2.50
2023-06-28T01:32:26.217Z,2.23
2023-06-28T01:34:54.239Z,2.30
2023-06-28T01:37:23.269Z,2.33
2023-06-28T01:39:51.898Z,2.50
2023-06-28T01:42:21.706Z,2.53
2023-06-28T01:44:49.814Z,2.43
2023-06-28T01:47:18.638Z,3.90
2023-06-28T01:49:47.386Z,2.90
2023-06-28T01:52:15.446Z,2.90
2023-06-28T01:54:43.467Z,3.07
2023-06-28T01:57:11.504Z,2.73
2023-06-28T01:59:40.909Z,2.80
2023-06-28T02:02:09.203Z,3.13
2023-06-28T02:04:37.214Z,3.00
2023-06-28T02:07:05.828Z,2.80
2023-06-28T02:09:33.827Z,3.63
2023-06-28T02:12:01.870Z,3.70
2023-06-28T02:14:29.883Z,3.30
2023-06-28T02:16:59.280Z,2.47
2023-06-28T02:19:27.252Z,2.97
2023-06-28T02:21:55.199Z,2.67
2023-06-28T02:24:23.180Z,3.07
2023-06-28T02:26:51.142Z,2.80
2023-06-28T02:29:19.107Z,3.03
2023-06-28T02:31:47.122Z,3.50
2023-06-28T02:34:16.550Z,2.77
2023-06-28T02:36:44.540Z,3.00
2023-06-28T02:39:12.525Z,2.87
2023-06-28T02:41:40.465Z,3.10
2023-06-28T02:44:08.505Z,3.00
2023-06-28T02:46:36.525Z,3.20
2023-06-28T02:49:04.577Z,3.30
2023-06-28T02:51:33.907Z,3.40
2023-06-28T02:54:02.196Z,3.47
2023-06-28T02:56:30.782Z,2.80
2023-06-28T02:58:58.789Z,2.83
2023-06-28T03:01:27.147Z,3.10
2023-06-28T03:03:55.278Z,3.17
2023-06-28T03:06:23.261Z,3.07
2023-06-28T03:08:52.674Z,2.70
2023-06-28T03:11:20.626Z,2.80
2023-06-28T03:13:48.618Z,3.37
2023-06-28T03:16:16.915Z,2.50
2023-06-28T03:18:44.912Z,2.80
2023-06-28T03:21:12.984Z,2.60
2023-06-28T03:23:41.052Z,2.77
2023-06-28T03:26:10.465Z,2.70
2023-06-28T03:28:38.472Z,2.87
2023-06-28T03:31:06.461Z,3.00
2023-06-28T03:33:34.483Z,3.03
2023-06-28T03:36:02.506Z,2.80
2023-06-28T03:38:30.520Z,2.70
2023-06-28T03:40:58.506Z,2.40
2023-06-28T03:43:27.890Z,2.67
2023-06-28T03:45:55.932Z,2.40
2023-06-28T03:48:24.018Z,2.73
2023-06-28T03:50:52.561Z,2.70
2023-06-28T03:53:20.494Z,2.37
2023-06-28T03:55:48.422Z,2.57
2023-06-28T03:58:16.419Z,2.43
2023-06-28T04:00:45.749Z,2.37
2023-06-28T04:03:13.914Z,2.70
2023-06-28T04:05:41.986Z,2.57
2023-06-28T04:08:10.189Z,2.83
2023-06-28T04:10:39.257Z,2.43
2023-06-28T04:13:07.559Z,2.83
2023-06-28T04:15:35.530Z,2.77
2023-06-28T04:18:05.026Z,2.17
2023-06-28T04:20:33.044Z,3.00
2023-06-28T04:23:00.981Z,3.33
2023-06-28T04:25:28.967Z,2.60
2023-06-28T04:27:56.925Z,3.03
2023-06-28T04:30:25.844Z,3.03
2023-06-28T04:32:53.833Z,2.77
2023-06-28T04:35:23.408Z,2.97
2023-06-28T04:37:51.609Z,2.60
2023-06-28T04:40:19.584Z,2.90
2023-06-28T04:42:47.617Z,2.90
2023-06-28T04:45:15.778Z,2.80
2023-06-28T04:47:44.263Z,3.40
2023-06-28T04:50:12.699Z,3.50
2023-06-28T04:52:42.046Z,3.20
2023-06-28T04:55:10.464Z,3.00
2023-06-28T04:57:38.440Z,2.77
2023-06-28T05:00:11.169Z,3.70
2023-06-28T05:02:39.403Z,2.73
2023-06-28T05:05:08.565Z,3.10
2023-06-28T05:07:36.886Z,3.70
2023-06-28T05:10:07.127Z,3.30
2023-06-28T05:12:35.628Z,2.60
2023-06-28T05:15:03.807Z,3.00
2023-06-28T05:17:31.866Z,2.50
2023-06-28T05:19:59.912Z,3.00
2023-06-28T05:22:28.676Z,2.63
2023-06-28T05:24:56.679Z,3.03
2023-06-28T05:27:26.049Z,2.90
2023-06-28T05:29:54.037Z,2.77
2023-06-28T05:32:22.009Z,3.80
2023-06-28T05:34:50.007Z,2.67
2023-06-28T05:37:17.986Z,3.30
2023-06-28T05:39:46.363Z,3.30
2023-06-28T05:42:14.416Z,3.47
2023-06-28T05:44:43.807Z,3.13
2023-06-28T05:47:11.757Z,3.17
2023-06-28T05:49:40.611Z,3.43
2023-06-28T05:52:09.973Z,3.13
2023-06-28T05:54:37.926Z,3.00
2023-06-28T05:57:07.387Z,3.27
2023-06-28T05:59:35.364Z,3.07
2023-06-28T06:02:05.131Z,2.63
2023-06-28T06:04:33.239Z,3.07
2023-06-28T06:07:01.231Z,3.23
2023-06-28T06:09:30.598Z,3.70
2023-06-28T06:11:58.633Z,3.73
2023-06-28T06:14:26.743Z,3.30
2023-06-28T06:16:55.555Z,3.40
2023-06-28T06:19:24.895Z,2.93
2023-06-28T06:21:52.896Z,3.70
2023-06-28T06:24:20.937Z,3.50
2023-06-28T06:26:48.921Z,3.47
2023-06-28T06:29:16.938Z,3.03
2023-06-28T06:31:44.949Z,3.90
2023-06-28T06:34:12.901Z,3.57
2023-06-28T06:36:42.243Z,3.00
2023-06-28T06:39:10.539Z,4.00
2023-06-28T06:41:38.506Z,3.13
2023-06-28T06:44:06.556Z,2.90
2023-06-28T06:46:34.564Z,2.73
2023-06-28T06:49:03.970Z,3.10
2023-06-28T06:51:32.212Z,2.67
2023-06-28T06:54:01.657Z,3.00
2023-06-28T06:56:29.618Z,2.80
2023-06-28T06:58:57.575Z,2.73
2023-06-28T07:01:25.516Z,2.43
2023-06-28T07:03:54.000Z,2.70
2023-06-28T07:06:21.949Z,2.63
2023-06-28T07:08:49.945Z,2.50
2023-06-28T07:11:19.399Z,3.50
2023-06-28T07:13:47.353Z,2.60
2023-06-28T07:16:15.366Z,2.43
2023-06-28T07:18:43.516Z,2.77
2023-06-28T07:21:15.337Z,2.13
2023-06-28T07:23:43.276Z,2.40
2023-06-28T07:26:11.238Z,1.70
2023-06-28T07:28:40.580Z,2.10
2023-06-28T07:31:08.828Z,2.20
2023-06-28T07:33:37.017Z,2.40
2023-06-28T07:36:05.600Z,2.33
2023-06-28T07:38:33.609Z,2.40
2023-06-28T07:41:01.665Z,2.27
2023-06-28T07:43:29.732Z,2.43
2023-06-28T07:46:00.337Z,2.23
2023-06-28T07:48:28.478Z,3.20
2023-06-28T07:50:56.817Z,3.03
2023-06-28T07:53:24.946Z,3.23
2023-06-28T07:55:52.999Z,3.13
2023-06-28T07:58:21.562Z,3.13
2023-06-28T08:00:49.619Z,4.28
2023-06-28T08:03:20.764Z,3.80
2023-06-28T08:05:48.835Z,3.50
2023-06-28T08:08:16.794Z,3.97
2023-06-28T08:10:44.840Z,3.70
2023-06-28T08:13:12.863Z,3.27
2023-06-28T08:15:41.927Z,3.30
2023-06-28T08:18:11.122Z,3.53
2023-06-28T08:20:43.385Z,3.60
2023-06-28T08:23:11.741Z,3.23
2023-06-28T08:25:39.724Z,3.37
2023-06-28T08:28:07.788Z,3.37
2023-06-28T08:30:35.832Z,3.17
2023-06-28T08:33:04.802Z,4.03
2023-06-28T08:35:32.974Z,3.67
2023-06-28T08:38:02.326Z,3.60
2023-06-28T08:40:31.242Z,3.70
2023-06-28T08:43:02.157Z,3.50
2023-06-28T08:45:33.115Z,3.70
2023-06-28T08:48:05.034Z,3.50
2023-06-28T08:50:40.721Z,3.77
2023-06-28T08:53:11.324Z,3.30
2023-06-28T08:55:39.707Z,4.00
2023-06-28T08:58:08.671Z,4.23
2023-06-28T09:00:36.661Z,3.30
2023-06-28T09:03:07.061Z,3.37
2023-06-28T09:05:35.424Z,3.17
2023-06-28T09:08:04.565Z,3.30
2023-06-28T09:10:34.426Z,3.37
2023-06-28T09:13:02.831Z,3.50
2023-06-28T09:15:31.179Z,2.87
2023-06-28T09:17:59.513Z,3.50
2023-06-28T09:20:27.592Z,3.17
2023-06-28T09:23:00.228Z,3.17
2023-06-28T09:25:30.724Z,3.47
2023-06-28T09:28:00.547Z,3.20
2023-06-28T09:30:29.328Z,3.00
2023-06-28T09:32:57.398Z,3.13
2023-06-28T09:35:25.756Z,3.87
2023-06-28T09:37:59.257Z,2.70
2023-06-28T09:40:27.317Z,2.80
2023-06-28T09:42:55.343Z,3.30
2023-06-28T09:45:28.865Z,3.90
2023-06-28T09:48:01.513Z,3.40
2023-06-28T09:50:40.546Z,2.90
2023-06-28T09:53:10.377Z,4.50
2023-06-28T09:55:42.868Z,3.30
2023-06-28T09:58:12.948Z,3.10
2023-06-28T10:00:43.893Z,3.40
2023-06-28T10:03:13.694Z,3.30
2023-06-28T10:05:44.093Z,3.10
2023-06-28T10:08:15.126Z,3.10
2023-06-28T10:10:45.193Z,3.10
2023-06-28T10:13:16.067Z,3.10
2023-06-28T10:15:50.893Z,2.80
2023-06-28T10:18:20.008Z,3.20
2023-06-28T10:20:48.534Z,3.10
2023-06-28T10:23:18.896Z,2.80
2023-06-28T10:25:47.440Z,2.03
2023-06-28T10:28:15.824Z,3.13
2023-06-28T10:30:46.142Z,2.40
2023-06-28T10:33:16.673Z,2.53
2023-06-28T10:35:46.360Z,2.30
2023-06-28T10:38:14.976Z,2.60
2023-06-28T10:40:43.188Z,2.53
2023-06-28T10:43:23.596Z,2.37
2023-06-28T10:45:54.051Z,2.40
2023-06-28T10:48:23.305Z,2.77
2023-06-28T10:50:52.802Z,1.87
2023-06-28T10:53:22.910Z,2.20
2023-06-28T10:56:13.869Z,2.47
2023-06-28T10:58:43.156Z,2.00
2023-06-28T11:01:13.644Z,2.23
2023-06-28T11:03:43.247Z,2.50
2023-06-28T11:06:13.177Z,2.43
2023-06-28T11:08:42.946Z,2.10
2023-06-28T11:11:12.514Z,2.50
2023-06-28T11:13:49.309Z,2.20
2023-06-28T11:16:24.063Z,2.63
2023-06-28T11:18:53.340Z,2.67
2023-06-28T11:21:26.995Z,2.43
2023-06-28T11:23:56.569Z,2.13
2023-06-28T11:26:35.045Z,3.03
2023-06-28T11:29:03.642Z,2.10
2023-06-28T11:31:42.032Z,2.50
2023-06-28T11:34:11.139Z,2.43
2023-06-28T11:36:39.631Z,2.33
2023-06-28T11:39:08.300Z,2.50
2023-06-28T11:41:36.703Z,2.03
2023-06-28T11:44:06.457Z,2.40
2023-06-28T11:46:36.283Z,2.20
2023-06-28T11:49:06.007Z,2.37
2023-06-28T11:51:34.738Z,2.23
2023-06-28T11:54:02.890Z,2.27
2023-06-28T11:56:35.416Z,1.83
2023-06-28T11:59:17.192Z,1.60
2023-06-28T12:01:46.075Z,2.10
2023-06-28T12:04:22.803Z,2.03
2023-06-28T12:06:51.806Z,2.30
2023-06-28T12:09:20.881Z,2.10
2023-06-28T12:11:54.448Z,2.20
2023-06-28T12:14:23.114Z,2.37
2023-06-28T12:16:52.023Z,2.30
2023-06-28T12:19:22.135Z,2.00
2023-06-28T12:21:50.142Z,2.57
2023-06-28T12:24:22.125Z,2.17
2023-06-28T12:26:50.945Z,2.30
2023-06-28T12:29:20.948Z,2.40
2023-06-28T12:31:50.302Z,2.20
2023-06-28T12:34:27.325Z,2.10
2023-06-28T12:36:56.783Z,1.93
2023-06-28T12:39:26.359Z,2.03
2023-06-28T12:42:02.784Z,2.23
2023-06-28T12:44:31.169Z,2.80
2023-06-28T12:46:59.187Z,2.20
2023-06-28T12:49:40.265Z,1.70
2023-06-28T12:52:08.863Z,2.90
2023-06-28T12:54:36.789Z,2.30
2023-06-28T12:57:05.234Z,2.10
2023-06-28T12:59:33.449Z,2.30
2023-06-28T13:02:01.676Z,2.63
2023-06-28T13:04:30.392Z,2.40
2023-06-28T13:07:00.058Z,2.40
2023-06-28T13:09:28.535Z,2.13
2023-06-28T13:11:56.705Z,1.77
2023-06-28T13:14:24.942Z,1.90
2023-06-28T13:16:53.080Z,2.33
2023-06-28T13:19:21.445Z,2.70
2023-06-28T13:21:52.622Z,1.93
2023-06-28T13:24:24.246Z,2.33
2023-06-28T13:26:52.856Z,2.60
2023-06-28T13:29:20.866Z,2.33
2023-06-28T13:31:49.172Z,2.20
2023-06-28T13:34:17.437Z,2.70
2023-06-28T13:36:46.435Z,2.50
2023-06-28T13:39:14.471Z,2.30
2023-06-28T13:41:44.740Z,2.00
2023-06-28T13:44:12.985Z,2.37
2023-06-28T13:46:41.093Z,2.20
2023-06-28T13:49:09.258Z,2.17
2023-06-28T13:51:37.328Z,2.30
2023-06-28T13:54:05.391Z,2.07
2023-06-28T13:56:33.381Z,1.87
2023-06-28T13:59:02.778Z,2.50
2023-06-28T14:01:30.864Z,1.80
2023-06-28T14:03:58.954Z,2.07
2023-06-28T14:06:26.991Z,1.83
2023-06-28T14:08:55.021Z,2.30
2023-06-28T14:11:23.021Z,1.93
2023-06-28T14:13:50.975Z,1.80
2023-06-28T14:16:20.405Z,1.97
2023-06-28T14:18:48.529Z,2.00
2023-06-28T14:21:16.518Z,1.77
2023-06-28T14:23:44.492Z,2.47
2023-06-28T14:26:12.627Z,1.90
2023-06-28T14:28:40.654Z,1.73
2023-06-28T14:31:09.150Z,2.73
2023-06-28T14:33:45.467Z,2.90
2023-06-28T14:36:13.485Z,2.00
2023-06-28T14:38:41.507Z,1.97
2023-06-28T14:41:09.910Z,2.20
2023-06-28T14:43:37.907Z,2.20
2023-06-28T14:46:05.914Z,2.23
2023-06-28T14:48:33.928Z,2.00
2023-06-28T14:51:04.510Z,1.93
2023-06-28T14:53:32.752Z,1.80
2023-06-28T14:56:00.696Z,2.47
2023-06-28T14:58:28.665Z,2.07
2023-06-28T15:00:56.658Z,2.40
2023-06-28T15:03:24.830Z,2.20
2023-06-28T15:05:52.928Z,2.20
2023-06-28T15:08:22.365Z,2.73
2023-06-28T15:10:50.438Z,2.60
2023-06-28T15:13:18.579Z,2.63
2023-06-28T15:15:46.910Z,2.73
2023-06-28T15:18:15.064Z,2.60
2023-06-28T15:20:43.079Z,2.30
2023-06-28T15:23:14.450Z,2.30
2023-06-28T15:25:44.091Z,2.67
2023-06-28T15:28:15.085Z,2.40
2023-06-28T15:30:43.432Z,2.50
2023-06-28T15:33:14.908Z,2.60
2023-06-28T15:35:43.334Z,3.00
2023-06-28T15:38:11.513Z,2.40
2023-06-28T15:40:39.607Z,2.37
2023-06-28T15:43:09.053Z,2.43
2023-06-28T15:45:38.275Z,2.07
2023-06-28T15:48:06.949Z,2.80
2023-06-28T15:50:36.037Z,2.50
2023-06-28T15:53:04.108Z,2.23
2023-06-28T15:55:32.304Z,2.27
2023-06-28T15:58:00.454Z,2.37
2023-06-28T16:00:29.848Z,2.07
2023-06-28T16:02:57.908Z,2.70
2023-06-28T16:05:25.936Z,2.53
2023-06-28T16:07:54.322Z,2.53
2023-06-28T16:10:23.692Z,2.57
2023-06-28T16:12:52.795Z,2.70
2023-06-28T16:15:20.939Z,2.60
2023-06-28T16:17:50.477Z,2.57
2023-06-28T16:20:19.453Z,2.50
2023-06-28T16:22:49.965Z,2.40
2023-06-28T16:25:19.081Z,2.80
2023-06-28T16:27:48.030Z,3.00
2023-06-28T16:30:16.145Z,2.70
2023-06-28T16:32:44.380Z,2.70
2023-06-28T16:35:13.765Z,2.50
2023-06-28T16:37:41.909Z,2.53
2023-06-28T16:40:10.992Z,2.77
2023-06-28T16:42:38.960Z,2.90
2023-06-28T16:45:07.911Z,3.50
2023-06-28T16:47:35.983Z,2.83
2023-06-28T16:50:04.298Z,2.80
2023-06-28T16:52:33.696Z,2.63
2023-06-28T16:55:02.561Z,2.77
2023-06-28T16:57:30.596Z,2.90
2023-06-28T16:59:58.608Z,3.10
2023-06-28T17:02:26.656Z,2.87
2023-06-28T17:04:54.697Z,2.80
2023-06-28T17:07:22.759Z,2.50
2023-06-28T17:09:52.645Z,2.70
2023-06-28T17:12:20.998Z,2.90
2023-06-28T17:14:48.982Z,2.47
2023-06-28T17:17:16.977Z,2.40
2023-06-28T17:19:45.059Z,2.60
2023-06-28T17:22:13.123Z,2.40
2023-06-28T17:24:41.160Z,3.20
2023-06-28T17:27:10.602Z,2.27
2023-06-28T17:29:38.626Z,2.80
2023-06-28T17:32:07.712Z,2.67
2023-06-28T17:34:35.775Z,2.63
2023-06-28T17:37:03.783Z,2.50
2023-06-28T17:39:33.203Z,2.93
2023-06-28T17:42:01.375Z,2.40
2023-06-28T17:44:30.745Z,2.97
2023-06-28T17:46:58.745Z,2.83
2023-06-28T17:49:26.716Z,2.73
2023-06-28T17:51:54.705Z,2.50
2023-06-28T17:54:23.105Z,3.00
2023-06-28T17:56:51.101Z,2.47
2023-06-28T17:59:19.103Z,2.33
2023-06-28T18:01:49.696Z,2.50
2023-06-28T18:04:18.349Z,2.23
2023-06-28T18:06:46.345Z,2.73
2023-06-28T18:09:14.324Z,2.63
2023-06-28T18:11:42.414Z,2.70
2023-06-28T18:14:10.454Z,2.50
2023-06-28T18:16:39.509Z,2.23
2023-06-28T18:19:10.313Z,2.80
2023-06-28T18:21:38.566Z,2.90
2023-06-28T18:24:07.469Z,2.43
2023-06-28T18:26:35.424Z,2.33
2023-06-28T18:29:03.538Z,2.20
2023-06-28T18:31:31.593Z,2.87
2023-06-28T18:33:59.620Z,2.33
2023-06-28T18:36:28.937Z,3.10
2023-06-28T18:38:56.896Z,2.90
2023-06-28T18:41:24.909Z,3.70
2023-06-28T18:43:56.570Z,3.13
2023-06-28T18:46:24.730Z,3.30
2023-06-28T18:48:53.514Z,3.23
2023-06-28T18:51:21.547Z,2.83
2023-06-28T18:53:50.988Z,2.77
2023-06-28T18:56:19.035Z,3.37
2023-06-28T18:58:47.064Z,3.30
2023-06-28T19:01:15.138Z,3.37
2023-06-28T19:03:43.252Z,3.30
2023-06-28T19:06:12.112Z,3.47
2023-06-28T19:08:40.778Z,2.60
2023-06-28T19:11:10.142Z,3.20
2023-06-28T19:13:40.319Z,2.90
2023-06-28T19:16:08.319Z,2.80
2023-06-28T19:18:36.541Z,3.17
2023-06-28T19:21:04.855Z,2.90
2023-06-28T19:23:32.914Z,2.50
2023-06-28T19:26:00.925Z,3.13
2023-06-28T19:28:30.289Z,3.50
2023-06-28T19:30:58.344Z,3.40
2023-06-28T19:33:26.650Z,3.40
2023-06-28T19:35:54.831Z,3.37
2023-06-28T19:38:22.974Z,2.67
2023-06-28T19:40:50.987Z,3.23
2023-06-28T19:43:20.196Z,3.30
2023-06-28T19:45:49.632Z,3.50
2023-06-28T19:48:18.434Z,3.50
2023-06-28T19:50:46.506Z,3.20
2023-06-28T19:53:14.568Z,3.13
2023-06-28T19:55:42.565Z,2.80
2023-06-28T19:58:10.878Z,2.73
2023-06-28T20:00:38.908Z,3.03
2023-06-28T20:03:08.284Z,3.50
2023-06-28T20:05:36.368Z,3.00
2023-06-28T20:08:06.169Z,3.33
2023-06-28T20:10:34.564Z,3.90
2023-06-28T20:13:02.716Z,3.90
2023-06-28T20:15:30.660Z,3.60
2023-06-28T20:17:58.802Z,3.40
2023-06-28T20:20:28.241Z,2.80
2023-06-28T20:22:56.265Z,2.77
2023-06-28T20:25:24.393Z,3.23
2023-06-28T20:27:52.367Z,2.93
2023-06-28T20:30:20.881Z,3.90
2023-06-28T20:32:49.074Z,2.97
2023-06-28T20:35:18.484Z,3.33
2023-06-28T20:37:48.096Z,3.43
2023-06-28T20:40:17.331Z,3.90
2023-06-28T20:42:45.443Z,4.37
2023-06-28T20:45:13.483Z,3.90
2023-06-28T20:47:41.545Z,3.40
2023-06-28T20:50:10.296Z,4.30
2023-06-28T20:52:38.358Z,4.00
2023-06-28T20:55:08.723Z,6.03
2023-06-28T20:57:36.729Z,4.17
2023-06-28T21:00:07.798Z,4.17
2023-06-28T21:02:35.935Z,3.60
2023-06-28T21:05:03.989Z,3.87
2023-06-28T21:07:32.407Z,4.33
2023-06-28T21:10:00.442Z,3.27
2023-06-28T21:12:31.746Z,4.30
2023-06-28T21:14:59.852Z,4.07
2023-06-28T21:17:28.121Z,4.27
2023-06-28T21:19:56.193Z,4.07
2023-06-28T21:22:24.223Z,3.87
2023-06-28T21:24:52.184Z,4.13
2023-06-28T21:27:20.159Z,3.53
2023-06-28T21:29:50.000Z,4.23
2023-06-28T21:32:18.030Z,4.23
2023-06-28T21:34:46.027Z,3.90
2023-06-28T21:37:14.049Z,3.40
2023-06-28T21:39:42.133Z,4.10
2023-06-28T21:42:11.529Z,4.37
2023-06-28T21:44:39.817Z,4.30
2023-06-28T21:47:09.425Z,3.43
2023-06-28T21:49:37.621Z,3.30
2023-06-28T21:52:06.253Z,4.20
2023-06-28T21:54:34.162Z,3.53
2023-06-28T21:57:02.710Z,4.40
2023-06-28T21:59:32.196Z,4.20
2023-06-28T22:02:00.331Z,4.03
2023-06-28T22:04:30.724Z,4.60
2023-06-28T22:07:06.872Z,3.90
2023-06-28T22:09:35.676Z,4.20
2023-06-28T22:12:05.728Z,3.97
2023-06-28T22:14:34.337Z,4.97
2023-06-28T22:17:02.445Z,4.40
2023-06-28T22:19:32.729Z,4.00
2023-06-28T22:22:00.805Z,4.60
2023-06-28T22:24:28.783Z,3.80
2023-06-28T22:26:56.826Z,4.67
2023-06-28T22:29:24.862Z,5.50
2023-06-28T22:31:52.824Z,4.33
2023-06-28T22:34:20.994Z,4.20
2023-06-28T22:36:50.403Z,3.77
2023-06-28T22:39:19.617Z,5.10
2023-06-28T22:41:47.690Z,4.63
2023-06-28T22:44:15.675Z,4.43
2023-06-28T22:46:44.472Z,4.40
2023-06-28T22:49:13.735Z,4.90
2023-06-28T22:51:42.463Z,4.80
2023-06-28T22:54:14.912Z,5.23
2023-06-28T22:56:42.901Z,5.27
2023-06-28T22:59:11.087Z,4.70
2023-06-28T23:01:39.080Z,5.67
2023-06-28T23:04:07.027Z,5.40
2023-06-28T23:06:35.021Z,5.50
2023-06-28T23:09:04.156Z,4.90
2023-06-28T23:11:33.530Z,5.10
2023-06-28T23:14:02.192Z,5.73
2023-06-28T23:16:33.692Z,5.07
2023-06-28T23:19:02.853Z,5.20
2023-06-28T23:21:34.527Z,6.33
2023-06-28T23:24:03.444Z,4.97
2023-06-28T23:26:33.412Z,4.83
2023-06-28T23:29:01.604Z,5.70
2023-06-28T23:31:29.629Z,5.97
2023-06-28T23:34:00.702Z,5.67
2023-06-28T23:36:28.737Z,4.57
2023-06-28T23:38:56.731Z,5.13
2023-06-28T23:41:24.757Z,5.47
2023-06-28T23:43:54.178Z,5.50
2023-06-28T23:46:22.215Z,6.60
2023-06-28T23:48:50.281Z,5.50
2023-06-28T23:51:18.995Z,5.40
2023-06-28T23:53:46.996Z,5.07
2023-06-28T23:56:15.162Z,4.50
2023-06-28T23:58:43.389Z,5.20
